sensor_id;sensor_type;location;lat;lon;timestamp;noise_LAeq;noise_LA_min;noise_LA_max;noise_LA01;noise_LA95
76100;Laerm;64828;49.956;8.636;2023-06-26T00:00:08;37.68;36.01;38.87;;
76100;Laerm;64828;49.956;8.636;2023-06-26T00:00:24;37.65;36.18;39.03;;
76100;Laerm;64828;49.956;8.636;2023-06-26T00:00:39;38.02;36.39;39.88;;
76100;Laerm;64828;49.956;8.636;2023-06-26T00:00:55;38.66;36.96;40.72;;
76100;Laerm;64828;49.956;8.636;2023-06-26T00:01:10;38.68;36.96;42.09;;
76100;Laerm;64828;49.956;8.636;2023-06-26T00:01:26;39.05;37.41;40.77;;
76100;Laerm;64828;49.956;8.636;2023-06-26T00:01:44;38.20;36.67;45.86;;
76100;Laerm;64828;49.956;8.636;2023-06-26T00:02:00;38.34;36.88;40.14;;
76100;Laerm;64828;49.956;8.636;2023-06-26T00:02:16;37.89;36.21;39.68;;
76100;Laerm;64828;49.956;8.636;2023-06-26T00:02:31;38.04;36.23;39.98;;
76100;Laerm;64828;49.956;8.636;2023-06-26T00:02:50;38.31;36.60;40.87;;
76100;Laerm;64828;49.956;8.636;2023-06-26T00:03:05;38.56;36.53;39.81;;
76100;Laerm;64828;49.956;8.636;2023-06-26T00:03:21;38.54;36.78;39.93;;
76100;Laerm;64828;49.956;8.636;2023-06-26T00:03:36;39.34;37.41;41.77;;
76100;Laerm;64828;49.956;8.636;2023-06-26T00:03:52;39.12;37.12;41.15;;
76100;Laerm;64828;49.956;8.636;2023-06-26T00:04:08;39.32;37.29;41.24;;
76100;Laerm;64828;49.956;8.636;2023-06-26T00:04:28;39.52;37.34;44.05;;
76100;Laerm;64828;49.956;8.636;2023-06-26T00:04:44;39.67;37.64;41.46;;
76100;Laerm;64828;49.956;8.636;2023-06-26T00:05:00;39.54;37.49;42.36;;
76100;Laerm;64828;49.956;8.636;2023-06-26T00:05:17;40.96;38.70;43.16;;
76100;Laerm;64828;49.956;8.636;2023-06-26T00:05:33;41.96;39.61;45.00;;
76100;Laerm;64828;49.956;8.636;2023-06-26T00:05:49;40.75;37.75;46.49;;
76100;Laerm;64828;49.956;8.636;2023-06-26T00:06:06;39.01;37.01;42.24;;
76100;Laerm;64828;49.956;8.636;2023-06-26T00:06:21;38.65;36.93;39.97;;
76100;Laerm;64828;49.956;8.636;2023-06-26T00:06:40;38.17;36.22;40.10;;
76100;Laerm;64828;49.956;8.636;2023-06-26T00:06:57;38.39;36.65;40.04;;
76100;Laerm;64828;49.956;8.636;2023-06-26T00:07:12;37.72;36.11;39.14;;
76100;Laerm;64828;49.956;8.636;2023-06-26T00:07:30;37.66;36.39;38.99;;
76100;Laerm;64828;49.956;8.636;2023-06-26T00:07:46;37.86;36.37;39.20;;
76100;Laerm;64828;49.956;8.636;2023-06-26T00:08:01;37.75;36.21;41.33;;
76100;Laerm;64828;49.956;8.636;2023-06-26T00:08:17;40.22;36.43;45.46;;
76100;Laerm;64828;49.956;8.636;2023-06-26T00:08:33;41.18;37.33;47.90;;
76100;Laerm;64828;49.956;8.636;2023-06-26T00:08:48;39.81;36.66;42.96;;
76100;Laerm;64828;49.956;8.636;2023-06-26T00:09:04;39.05;36.59;42.16;;
76100;Laerm;64828;49.956;8.636;2023-06-26T00:09:19;39.20;36.72;42.84;;
76100;Laerm;64828;49.956;8.636;2023-06-26T00:09:35;38.04;36.09;42.45;;
76100;Laerm;64828;49.956;8.636;2023-06-26T00:09:50;38.53;36.51;41.70;;
76100;Laerm;64828;49.956;8.636;2023-06-26T00:10:06;38.71;36.86;40.89;;
76100;Laerm;64828;49.956;8.636;2023-06-26T00:10:22;38.13;35.89;40.33;;
76100;Laerm;64828;49.956;8.636;2023-06-26T00:10:38;38.66;36.84;41.33;;
76100;Laerm;64828;49.956;8.636;2023-06-26T00:10:54;38.38;36.98;39.85;;
76100;Laerm;64828;49.956;8.636;2023-06-26T00:11:09;38.26;36.50;41.01;;
76100;Laerm;64828;49.956;8.636;2023-06-26T00:11:25;41.26;37.88;44.87;;
76100;Laerm;64828;49.956;8.636;2023-06-26T00:11:42;41.91;39.37;44.15;;
76100;Laerm;64828;49.956;8.636;2023-06-26T00:11:58;39.15;37.19;42.28;;
76100;Laerm;64828;49.956;8.636;2023-06-26T00:12:14;38.51;36.75;40.60;;
76100;Laerm;64828;49.956;8.636;2023-06-26T00:12:31;38.24;36.29;40.97;;
76100;Laerm;64828;49.956;8.636;2023-06-26T00:12:47;38.53;36.75;40.45;;
76100;Laerm;64828;49.956;8.636;2023-06-26T00:13:02;38.49;36.83;40.70;;
76100;Laerm;64828;49.956;8.636;2023-06-26T00:13:19;38.59;36.50;41.77;;
76100;Laerm;64828;49.956;8.636;2023-06-26T00:13:35;39.19;37.43;41.12;;
76100;Laerm;64828;49.956;8.636;2023-06-26T00:13:50;39.19;37.73;43.06;;
76100;Laerm;64828;49.956;8.636;2023-06-26T00:14:06;38.92;37.27;41.32;;
76100;Laerm;64828;49.956;8.636;2023-06-26T00:14:22;39.97;37.46;44.01;;
76100;Laerm;64828;49.956;8.636;2023-06-26T00:14:37;39.84;38.19;40.98;;
76100;Laerm;64828;49.956;8.636;2023-06-26T00:14:53;40.28;38.43;42.15;;
76100;Laerm;64828;49.956;8.636;2023-06-26T00:15:09;39.28;37.84;41.32;;
76100;Laerm;64828;49.956;8.636;2023-06-26T00:15:24;39.04;37.67;40.49;;
76100;Laerm;64828;49.956;8.636;2023-06-26T00:15:40;39.54;37.34;41.57;;
76100;Laerm;64828;49.956;8.636;2023-06-26T00:15:55;40.93;38.31;44.07;;
76100;Laerm;64828;49.956;8.636;2023-06-26T00:16:11;41.12;38.53;43.90;;
76100;Laerm;64828;49.956;8.636;2023-06-26T00:16:27;42.30;39.10;46.03;;
76100;Laerm;64828;49.956;8.636;2023-06-26T00:16:43;40.91;38.72;45.37;;
76100;Laerm;64828;49.956;8.636;2023-06-26T00:16:58;41.93;38.20;45.83;;
76100;Laerm;64828;49.956;8.636;2023-06-26T00:17:14;45.14;38.90;54.64;;
76100;Laerm;64828;49.956;8.636;2023-06-26T00:17:30;40.32;38.03;42.88;;
76100;Laerm;64828;49.956;8.636;2023-06-26T00:17:45;40.18;37.37;43.02;;
76100;Laerm;64828;49.956;8.636;2023-06-26T00:18:01;40.23;37.54;43.20;;
76100;Laerm;64828;49.956;8.636;2023-06-26T00:18:18;40.68;38.50;43.89;;
76100;Laerm;64828;49.956;8.636;2023-06-26T00:18:34;40.07;38.30;42.20;;
76100;Laerm;64828;49.956;8.636;2023-06-26T00:18:50;39.59;37.52;41.23;;
76100;Laerm;64828;49.956;8.636;2023-06-26T00:19:05;39.95;38.37;41.77;;
76100;Laerm;64828;49.956;8.636;2023-06-26T00:19:21;39.73;38.07;41.77;;
76100;Laerm;64828;49.956;8.636;2023-06-26T00:19:36;39.59;37.85;44.74;;
76100;Laerm;64828;49.956;8.636;2023-06-26T00:19:52;39.83;38.21;41.42;;
76100;Laerm;64828;49.956;8.636;2023-06-26T00:20:08;39.90;37.87;42.04;;
76100;Laerm;64828;49.956;8.636;2023-06-26T00:20:24;40.48;38.49;42.11;;
76100;Laerm;64828;49.956;8.636;2023-06-26T00:20:40;40.23;37.98;41.77;;
76100;Laerm;64828;49.956;8.636;2023-06-26T00:20:56;39.72;38.00;41.20;;
76100;Laerm;64828;49.956;8.636;2023-06-26T00:21:11;39.76;38.20;41.32;;
76100;Laerm;64828;49.956;8.636;2023-06-26T00:21:27;40.02;38.13;42.67;;
76100;Laerm;64828;49.956;8.636;2023-06-26T00:21:43;40.74;38.69;44.55;;
76100;Laerm;64828;49.956;8.636;2023-06-26T00:22:03;40.14;38.34;41.84;;
76100;Laerm;64828;49.956;8.636;2023-06-26T00:22:21;40.34;38.46;42.73;;
76100;Laerm;64828;49.956;8.636;2023-06-26T00:22:36;40.61;38.53;42.92;;
76100;Laerm;64828;49.956;8.636;2023-06-26T00:22:56;40.01;37.66;42.09;;
76100;Laerm;64828;49.956;8.636;2023-06-26T00:23:16;39.54;37.77;41.12;;
76100;Laerm;64828;49.956;8.636;2023-06-26T00:23:32;39.33;37.64;41.03;;
76100;Laerm;64828;49.956;8.636;2023-06-26T00:23:48;39.23;37.34;40.56;;
76100;Laerm;64828;49.956;8.636;2023-06-26T00:24:04;38.91;37.16;40.26;;
76100;Laerm;64828;49.956;8.636;2023-06-26T00:24:20;38.85;37.17;40.73;;
76100;Laerm;64828;49.956;8.636;2023-06-26T00:24:35;39.84;38.07;41.39;;
76100;Laerm;64828;49.956;8.636;2023-06-26T00:24:51;39.37;37.80;43.91;;
76100;Laerm;64828;49.956;8.636;2023-06-26T00:25:07;39.61;38.04;41.33;;
76100;Laerm;64828;49.956;8.636;2023-06-26T00:25:23;40.00;38.25;41.77;;
76100;Laerm;64828;49.956;8.636;2023-06-26T00:25:39;39.41;37.78;41.75;;
76100;Laerm;64828;49.956;8.636;2023-06-26T00:25:54;39.33;37.74;41.32;;
76100;Laerm;64828;49.956;8.636;2023-06-26T00:26:11;39.30;37.68;40.84;;
76100;Laerm;64828;49.956;8.636;2023-06-26T00:26:26;39.37;37.62;42.77;;
76100;Laerm;64828;49.956;8.636;2023-06-26T00:26:42;40.05;37.94;43.30;;
76100;Laerm;64828;49.956;8.636;2023-06-26T00:26:58;40.56;38.39;43.66;;
76100;Laerm;64828;49.956;8.636;2023-06-26T00:27:14;40.55;38.55;43.32;;
76100;Laerm;64828;49.956;8.636;2023-06-26T00:27:29;39.73;37.62;42.55;;
76100;Laerm;64828;49.956;8.636;2023-06-26T00:27:45;40.97;38.27;43.14;;
76100;Laerm;64828;49.956;8.636;2023-06-26T00:28:01;40.74;37.88;43.38;;
76100;Laerm;64828;49.956;8.636;2023-06-26T00:28:16;38.94;37.17;40.66;;
76100;Laerm;64828;49.956;8.636;2023-06-26T00:28:32;39.48;37.60;41.26;;
76100;Laerm;64828;49.956;8.636;2023-06-26T00:28:47;41.87;38.48;45.24;;
76100;Laerm;64828;49.956;8.636;2023-06-26T00:29:03;43.45;40.56;46.46;;
76100;Laerm;64828;49.956;8.636;2023-06-26T00:29:18;40.64;37.66;43.64;;
76100;Laerm;64828;49.956;8.636;2023-06-26T00:29:34;38.97;36.81;40.79;;
76100;Laerm;64828;49.956;8.636;2023-06-26T00:29:50;40.11;38.19;41.81;;
76100;Laerm;64828;49.956;8.636;2023-06-26T00:30:08;39.00;37.25;41.45;;
76100;Laerm;64828;49.956;8.636;2023-06-26T00:30:25;39.06;36.72;40.81;;
76100;Laerm;64828;49.956;8.636;2023-06-26T00:30:40;38.98;37.51;40.56;;
76100;Laerm;64828;49.956;8.636;2023-06-26T00:30:56;38.90;37.00;41.36;;
76100;Laerm;64828;49.956;8.636;2023-06-26T00:31:11;40.20;38.26;42.45;;
76100;Laerm;64828;49.956;8.636;2023-06-26T00:31:27;39.71;37.72;43.50;;
76100;Laerm;64828;49.956;8.636;2023-06-26T00:31:43;39.92;38.12;42.13;;
76100;Laerm;64828;49.956;8.636;2023-06-26T00:31:58;40.26;38.46;42.48;;
76100;Laerm;64828;49.956;8.636;2023-06-26T00:32:14;39.99;38.29;41.64;;
76100;Laerm;64828;49.956;8.636;2023-06-26T00:32:30;40.34;38.26;43.66;;
76100;Laerm;64828;49.956;8.636;2023-06-26T00:32:45;40.47;38.39;42.55;;
76100;Laerm;64828;49.956;8.636;2023-06-26T00:33:01;40.07;38.50;41.50;;
76100;Laerm;64828;49.956;8.636;2023-06-26T00:33:17;40.42;38.57;42.31;;
76100;Laerm;64828;49.956;8.636;2023-06-26T00:33:32;40.89;38.72;42.94;;
76100;Laerm;64828;49.956;8.636;2023-06-26T00:33:48;40.29;38.47;41.95;;
76100;Laerm;64828;49.956;8.636;2023-06-26T00:34:04;39.92;37.73;41.69;;
76100;Laerm;64828;49.956;8.636;2023-06-26T00:34:19;39.76;37.83;41.13;;
76100;Laerm;64828;49.956;8.636;2023-06-26T00:34:35;40.76;38.66;43.34;;
76100;Laerm;64828;49.956;8.636;2023-06-26T00:34:50;40.09;37.39;41.75;;
76100;Laerm;64828;49.956;8.636;2023-06-26T00:35:07;40.45;38.12;42.93;;
76100;Laerm;64828;49.956;8.636;2023-06-26T00:35:23;40.41;38.41;42.62;;
76100;Laerm;64828;49.956;8.636;2023-06-26T00:35:39;39.76;38.31;42.11;;
76100;Laerm;64828;49.956;8.636;2023-06-26T00:35:54;39.61;37.79;41.35;;
76100;Laerm;64828;49.956;8.636;2023-06-26T00:36:10;40.57;38.01;43.38;;
76100;Laerm;64828;49.956;8.636;2023-06-26T00:36:25;39.23;37.57;41.10;;
76100;Laerm;64828;49.956;8.636;2023-06-26T00:36:41;39.56;37.55;41.53;;
76100;Laerm;64828;49.956;8.636;2023-06-26T00:36:59;40.52;37.55;44.24;;
76100;Laerm;64828;49.956;8.636;2023-06-26T00:37:15;39.64;37.58;41.23;;
76100;Laerm;64828;49.956;8.636;2023-06-26T00:37:31;41.14;38.44;44.31;;
76100;Laerm;64828;49.956;8.636;2023-06-26T00:37:46;41.61;38.68;44.97;;
76100;Laerm;64828;49.956;8.636;2023-06-26T00:38:02;39.69;37.12;41.30;;
76100;Laerm;64828;49.956;8.636;2023-06-26T00:38:18;39.78;37.93;42.82;;
76100;Laerm;64828;49.956;8.636;2023-06-26T00:38:34;40.00;37.84;43.79;;
76100;Laerm;64828;49.956;8.636;2023-06-26T00:38:50;39.58;37.42;41.95;;
76100;Laerm;64828;49.956;8.636;2023-06-26T00:39:06;39.87;37.80;45.64;;
76100;Laerm;64828;49.956;8.636;2023-06-26T00:39:21;39.44;37.26;42.05;;
76100;Laerm;64828;49.956;8.636;2023-06-26T00:39:37;40.02;38.41;44.10;;
76100;Laerm;64828;49.956;8.636;2023-06-26T00:39:52;39.90;38.02;42.04;;
76100;Laerm;64828;49.956;8.636;2023-06-26T00:40:09;39.94;38.11;42.23;;
76100;Laerm;64828;49.956;8.636;2023-06-26T00:40:25;39.91;38.07;42.30;;
76100;Laerm;64828;49.956;8.636;2023-06-26T00:40:41;39.26;37.29;41.73;;
76100;Laerm;64828;49.956;8.636;2023-06-26T00:40:57;39.72;37.91;41.47;;
76100;Laerm;64828;49.956;8.636;2023-06-26T00:41:13;40.13;37.77;41.84;;
76100;Laerm;64828;49.956;8.636;2023-06-26T00:41:29;39.91;38.03;41.71;;
76100;Laerm;64828;49.956;8.636;2023-06-26T00:41:44;39.95;38.41;42.48;;
76100;Laerm;64828;49.956;8.636;2023-06-26T00:42:00;39.94;38.18;41.91;;
76100;Laerm;64828;49.956;8.636;2023-06-26T00:42:16;40.15;38.23;41.97;;
76100;Laerm;64828;49.956;8.636;2023-06-26T00:42:31;39.89;38.22;41.46;;
76100;Laerm;64828;49.956;8.636;2023-06-26T00:42:47;39.14;36.91;41.13;;
76100;Laerm;64828;49.956;8.636;2023-06-26T00:43:03;39.13;37.15;41.82;;
76100;Laerm;64828;49.956;8.636;2023-06-26T00:43:18;39.09;37.55;40.47;;
76100;Laerm;64828;49.956;8.636;2023-06-26T00:43:34;39.42;37.28;50.59;;
76100;Laerm;64828;49.956;8.636;2023-06-26T00:43:49;39.89;38.04;42.97;;
76100;Laerm;64828;49.956;8.636;2023-06-26T00:44:06;39.40;37.67;42.34;;
76100;Laerm;64828;49.956;8.636;2023-06-26T00:44:21;39.01;37.13;41.63;;
76100;Laerm;64828;49.956;8.636;2023-06-26T00:44:37;38.71;36.78;40.53;;
76100;Laerm;64828;49.956;8.636;2023-06-26T00:44:53;39.27;37.08;41.30;;
76100;Laerm;64828;49.956;8.636;2023-06-26T00:45:09;39.12;36.80;41.33;;
76100;Laerm;64828;49.956;8.636;2023-06-26T00:45:24;39.12;37.21;44.57;;
76100;Laerm;64828;49.956;8.636;2023-06-26T00:45:40;39.12;37.43;41.23;;
76100;Laerm;64828;49.956;8.636;2023-06-26T00:45:56;40.54;38.05;42.31;;
76100;Laerm;64828;49.956;8.636;2023-06-26T00:46:15;40.08;37.42;42.09;;
76100;Laerm;64828;49.956;8.636;2023-06-26T00:46:32;39.34;37.47;42.40;;
76100;Laerm;64828;49.956;8.636;2023-06-26T00:46:48;39.17;37.57;41.17;;
76100;Laerm;64828;49.956;8.636;2023-06-26T00:47:04;38.54;37.03;40.12;;
76100;Laerm;64828;49.956;8.636;2023-06-26T00:47:19;39.13;37.38;41.09;;
76100;Laerm;64828;49.956;8.636;2023-06-26T00:47:36;39.17;37.24;41.03;;
76100;Laerm;64828;49.956;8.636;2023-06-26T00:47:52;38.87;36.86;42.15;;
76100;Laerm;64828;49.956;8.636;2023-06-26T00:48:10;38.73;37.09;40.19;;
76100;Laerm;64828;49.956;8.636;2023-06-26T00:48:30;39.16;36.55;42.82;;
76100;Laerm;64828;49.956;8.636;2023-06-26T00:48:48;39.09;37.45;41.41;;
76100;Laerm;64828;49.956;8.636;2023-06-26T00:49:04;38.68;37.21;40.11;;
76100;Laerm;64828;49.956;8.636;2023-06-26T00:49:20;38.76;36.98;40.51;;
76100;Laerm;64828;49.956;8.636;2023-06-26T00:49:35;38.70;37.18;40.71;;
76100;Laerm;64828;49.956;8.636;2023-06-26T00:49:52;38.91;36.91;40.44;;
76100;Laerm;64828;49.956;8.636;2023-06-26T00:50:08;38.63;36.95;40.42;;
76100;Laerm;64828;49.956;8.636;2023-06-26T00:50:24;38.76;37.33;40.40;;
76100;Laerm;64828;49.956;8.636;2023-06-26T00:50:41;38.96;37.01;41.38;;
76100;Laerm;64828;49.956;8.636;2023-06-26T00:50:57;38.35;36.87;39.99;;
76100;Laerm;64828;49.956;8.636;2023-06-26T00:51:13;38.23;36.67;39.72;;
76100;Laerm;64828;49.956;8.636;2023-06-26T00:51:30;38.70;36.99;40.40;;
76100;Laerm;64828;49.956;8.636;2023-06-26T00:51:46;38.41;36.59;39.79;;
76100;Laerm;64828;49.956;8.636;2023-06-26T00:52:02;38.18;36.85;39.49;;
76100;Laerm;64828;49.956;8.636;2023-06-26T00:52:19;38.10;36.37;42.13;;
76100;Laerm;64828;49.956;8.636;2023-06-26T00:52:34;38.15;36.52;39.57;;
76100;Laerm;64828;49.956;8.636;2023-06-26T00:52:50;38.39;36.50;40.87;;
76100;Laerm;64828;49.956;8.636;2023-06-26T00:53:06;38.19;36.64;39.91;;
76100;Laerm;64828;49.956;8.636;2023-06-26T00:53:22;38.23;36.88;40.02;;
76100;Laerm;64828;49.956;8.636;2023-06-26T00:53:38;38.61;36.70;39.97;;
76100;Laerm;64828;49.956;8.636;2023-06-26T00:53:54;38.57;36.79;41.65;;
76100;Laerm;64828;49.956;8.636;2023-06-26T00:54:10;39.04;36.97;44.74;;
76100;Laerm;64828;49.956;8.636;2023-06-26T00:54:26;39.06;36.91;40.96;;
76100;Laerm;64828;49.956;8.636;2023-06-26T00:54:42;38.88;37.14;40.53;;
76100;Laerm;64828;49.956;8.636;2023-06-26T00:54:58;38.77;37.01;40.25;;
76100;Laerm;64828;49.956;8.636;2023-06-26T00:55:14;38.78;36.94;40.07;;
76100;Laerm;64828;49.956;8.636;2023-06-26T00:55:29;38.93;36.80;40.30;;
76100;Laerm;64828;49.956;8.636;2023-06-26T00:55:46;38.85;37.20;40.34;;
76100;Laerm;64828;49.956;8.636;2023-06-26T00:56:03;38.96;37.35;40.22;;
76100;Laerm;64828;49.956;8.636;2023-06-26T00:56:19;39.12;37.56;40.25;;
76100;Laerm;64828;49.956;8.636;2023-06-26T00:56:35;39.56;37.83;41.60;;
76100;Laerm;64828;49.956;8.636;2023-06-26T00:56:52;39.44;37.42;42.03;;
76100;Laerm;64828;49.956;8.636;2023-06-26T00:57:07;39.33;37.31;41.53;;
76100;Laerm;64828;49.956;8.636;2023-06-26T00:57:23;39.21;37.37;40.97;;
76100;Laerm;64828;49.956;8.636;2023-06-26T00:57:39;38.61;36.90;40.25;;
76100;Laerm;64828;49.956;8.636;2023-06-26T00:57:55;39.03;37.48;40.63;;
76100;Laerm;64828;49.956;8.636;2023-06-26T00:58:11;38.89;37.22;40.64;;
76100;Laerm;64828;49.956;8.636;2023-06-26T00:58:27;38.85;36.91;40.91;;
76100;Laerm;64828;49.956;8.636;2023-06-26T00:58:42;38.65;37.00;42.71;;
76100;Laerm;64828;49.956;8.636;2023-06-26T00:58:58;38.52;37.01;39.98;;
76100;Laerm;64828;49.956;8.636;2023-06-26T00:59:14;38.86;37.26;40.59;;
76100;Laerm;64828;49.956;8.636;2023-06-26T00:59:30;38.70;36.99;40.41;;
76100;Laerm;64828;49.956;8.636;2023-06-26T00:59:45;38.64;36.52;40.68;;
76100;Laerm;64828;49.956;8.636;2023-06-26T01:00:02;38.80;36.54;40.43;;
76100;Laerm;64828;49.956;8.636;2023-06-26T01:00:19;38.54;36.73;40.29;;
76100;Laerm;64828;49.956;8.636;2023-06-26T01:00:35;38.99;37.21;40.39;;
76100;Laerm;64828;49.956;8.636;2023-06-26T01:00:52;39.46;37.40;41.46;;
76100;Laerm;64828;49.956;8.636;2023-06-26T01:01:08;38.52;36.95;40.72;;
76100;Laerm;64828;49.956;8.636;2023-06-26T01:01:24;38.56;36.83;40.20;;
76100;Laerm;64828;49.956;8.636;2023-06-26T01:01:41;38.82;36.98;40.54;;
76100;Laerm;64828;49.956;8.636;2023-06-26T01:01:56;38.37;36.71;39.84;;
76100;Laerm;64828;49.956;8.636;2023-06-26T01:02:12;38.46;37.00;40.38;;
76100;Laerm;64828;49.956;8.636;2023-06-26T01:02:28;38.88;37.05;40.56;;
76100;Laerm;64828;49.956;8.636;2023-06-26T01:02:48;39.00;37.32;41.78;;
76100;Laerm;64828;49.956;8.636;2023-06-26T01:03:04;38.26;36.94;39.51;;
76100;Laerm;64828;49.956;8.636;2023-06-26T01:03:23;38.08;36.40;39.62;;
76100;Laerm;64828;49.956;8.636;2023-06-26T01:03:40;38.51;36.97;40.31;;
76100;Laerm;64828;49.956;8.636;2023-06-26T01:03:55;39.24;37.30;41.10;;
76100;Laerm;64828;49.956;8.636;2023-06-26T01:04:12;39.33;37.60;42.38;;
76100;Laerm;64828;49.956;8.636;2023-06-26T01:04:32;39.45;37.32;41.96;;
76100;Laerm;64828;49.956;8.636;2023-06-26T01:04:52;39.06;36.95;41.31;;
76100;Laerm;64828;49.956;8.636;2023-06-26T01:05:08;38.61;37.11;40.15;;
76100;Laerm;64828;49.956;8.636;2023-06-26T01:05:29;39.20;37.18;40.94;;
76100;Laerm;64828;49.956;8.636;2023-06-26T01:05:45;39.46;37.35;41.44;;
76100;Laerm;64828;49.956;8.636;2023-06-26T01:06:05;39.04;36.70;44.97;;
76100;Laerm;64828;49.956;8.636;2023-06-26T01:06:23;39.42;37.63;41.23;;
76100;Laerm;64828;49.956;8.636;2023-06-26T01:06:39;39.53;37.84;41.35;;
76100;Laerm;64828;49.956;8.636;2023-06-26T01:06:56;39.37;37.78;41.11;;
76100;Laerm;64828;49.956;8.636;2023-06-26T01:07:12;39.49;37.87;41.29;;
76100;Laerm;64828;49.956;8.636;2023-06-26T01:07:28;39.29;37.38;41.31;;
76100;Laerm;64828;49.956;8.636;2023-06-26T01:07:50;39.29;37.29;41.39;;
76100;Laerm;64828;49.956;8.636;2023-06-26T01:08:08;39.01;37.30;40.40;;
76100;Laerm;64828;49.956;8.636;2023-06-26T01:08:25;38.76;36.97;40.35;;
76100;Laerm;64828;49.956;8.636;2023-06-26T01:08:41;38.57;36.87;40.06;;
76100;Laerm;64828;49.956;8.636;2023-06-26T01:08:59;39.32;37.34;41.14;;
76100;Laerm;64828;49.956;8.636;2023-06-26T01:09:19;39.17;37.28;41.16;;
76100;Laerm;64828;49.956;8.636;2023-06-26T01:09:35;38.79;37.12;40.41;;
76100;Laerm;64828;49.956;8.636;2023-06-26T01:09:51;38.95;37.52;41.17;;
76100;Laerm;64828;49.956;8.636;2023-06-26T01:10:07;38.93;37.48;40.82;;
76100;Laerm;64828;49.956;8.636;2023-06-26T01:10:24;39.09;37.46;40.69;;
76100;Laerm;64828;49.956;8.636;2023-06-26T01:10:40;39.40;37.58;40.84;;
76100;Laerm;64828;49.956;8.636;2023-06-26T01:10:55;40.12;37.96;42.14;;
76100;Laerm;64828;49.956;8.636;2023-06-26T01:11:13;41.16;38.82;43.84;;
76100;Laerm;64828;49.956;8.636;2023-06-26T01:11:29;40.42;38.36;42.64;;
76100;Laerm;64828;49.956;8.636;2023-06-26T01:11:45;40.26;37.90;42.30;;
76100;Laerm;64828;49.956;8.636;2023-06-26T01:12:01;39.77;38.09;41.78;;
76100;Laerm;64828;49.956;8.636;2023-06-26T01:12:18;39.83;38.29;41.47;;
76100;Laerm;64828;49.956;8.636;2023-06-26T01:12:34;39.31;37.42;40.96;;
76100;Laerm;64828;49.956;8.636;2023-06-26T01:12:51;39.44;37.53;42.09;;
76100;Laerm;64828;49.956;8.636;2023-06-26T01:13:08;39.62;37.45;45.88;;
76100;Laerm;64828;49.956;8.636;2023-06-26T01:13:24;39.54;37.51;41.46;;
76100;Laerm;64828;49.956;8.636;2023-06-26T01:13:42;39.43;37.66;41.38;;
76100;Laerm;64828;49.956;8.636;2023-06-26T01:14:01;39.35;37.38;40.83;;
76100;Laerm;64828;49.956;8.636;2023-06-26T01:14:17;39.49;37.39;43.01;;
76100;Laerm;64828;49.956;8.636;2023-06-26T01:14:34;40.36;37.43;43.58;;
76100;Laerm;64828;49.956;8.636;2023-06-26T01:14:50;42.48;38.29;46.79;;
76100;Laerm;64828;49.956;8.636;2023-06-26T01:15:07;41.50;38.34;45.57;;
76100;Laerm;64828;49.956;8.636;2023-06-26T01:15:23;39.52;37.53;41.25;;
76100;Laerm;64828;49.956;8.636;2023-06-26T01:15:40;39.49;37.02;41.59;;
76100;Laerm;64828;49.956;8.636;2023-06-26T01:15:58;39.26;37.62;45.38;;
76100;Laerm;64828;49.956;8.636;2023-06-26T01:16:16;39.33;37.39;41.59;;
76100;Laerm;64828;49.956;8.636;2023-06-26T01:16:35;39.64;37.45;41.10;;
76100;Laerm;64828;49.956;8.636;2023-06-26T01:16:52;39.47;36.64;41.10;;
76100;Laerm;64828;49.956;8.636;2023-06-26T01:17:09;39.92;37.95;41.80;;
76100;Laerm;64828;49.956;8.636;2023-06-26T01:17:29;40.92;38.36;47.91;;
76100;Laerm;64828;49.956;8.636;2023-06-26T01:17:47;41.99;38.83;46.59;;
76100;Laerm;64828;49.956;8.636;2023-06-26T01:18:04;41.78;39.11;48.16;;
76100;Laerm;64828;49.956;8.636;2023-06-26T01:18:21;42.01;39.34;45.07;;
76100;Laerm;64828;49.956;8.636;2023-06-26T01:18:38;42.48;38.98;46.32;;
76100;Laerm;64828;49.956;8.636;2023-06-26T01:18:57;42.24;39.95;44.74;;
76100;Laerm;64828;49.956;8.636;2023-06-26T01:19:29;42.58;39.38;50.96;;
76100;Laerm;64828;49.956;8.636;2023-06-26T01:19:46;42.74;39.34;45.76;;
76100;Laerm;64828;49.956;8.636;2023-06-26T01:20:05;43.15;40.55;51.26;;
76100;Laerm;64828;49.956;8.636;2023-06-26T01:20:24;44.15;41.05;50.30;;
76100;Laerm;64828;49.956;8.636;2023-06-26T01:20:42;43.70;40.39;51.01;;
76100;Laerm;64828;49.956;8.636;2023-06-26T01:20:59;42.96;40.48;47.33;;
76100;Laerm;64828;49.956;8.636;2023-06-26T01:21:18;41.93;39.29;44.29;;
76100;Laerm;64828;49.956;8.636;2023-06-26T01:21:37;42.20;39.96;44.38;;
76100;Laerm;64828;49.956;8.636;2023-06-26T01:22:09;42.78;40.61;44.97;;
76100;Laerm;64828;49.956;8.636;2023-06-26T01:22:48;42.90;39.82;45.80;;
76100;Laerm;64828;49.956;8.636;2023-06-26T01:23:44;42.10;39.60;46.99;;
76100;Laerm;64828;49.956;8.636;2023-06-26T01:24:16;41.33;38.52;43.64;;
76100;Laerm;64828;49.956;8.636;2023-06-26T01:24:38;40.49;38.16;42.58;;
76100;Laerm;64828;49.956;8.636;2023-06-26T01:25:30;40.54;38.69;45.81;;
76100;Laerm;64828;49.956;8.636;2023-06-26T01:26:16;39.95;38.11;42.10;;
76100;Laerm;64828;49.956;8.636;2023-06-26T01:26:33;39.66;37.71;41.58;;
76100;Laerm;64828;49.956;8.636;2023-06-26T01:26:52;39.91;37.86;41.83;;
76100;Laerm;64828;49.956;8.636;2023-06-26T01:27:09;40.43;37.97;43.10;;
76100;Laerm;64828;49.956;8.636;2023-06-26T01:27:26;40.40;38.43;42.58;;
76100;Laerm;64828;49.956;8.636;2023-06-26T01:27:45;39.71;37.73;41.59;;
76100;Laerm;64828;49.956;8.636;2023-06-26T01:28:01;38.75;36.67;41.08;;
76100;Laerm;64828;49.956;8.636;2023-06-26T01:28:19;38.87;37.04;41.32;;
76100;Laerm;64828;49.956;8.636;2023-06-26T01:28:42;40.56;37.21;50.15;;
76100;Laerm;64828;49.956;8.636;2023-06-26T01:29:01;39.16;37.39;46.52;;
76100;Laerm;64828;49.956;8.636;2023-06-26T01:29:19;38.86;37.33;41.03;;
76100;Laerm;64828;49.956;8.636;2023-06-26T01:29:40;39.13;37.37;43.59;;
76100;Laerm;64828;49.956;8.636;2023-06-26T01:29:57;39.52;37.45;41.74;;
76100;Laerm;64828;49.956;8.636;2023-06-26T01:30:15;38.97;37.30;41.64;;
76100;Laerm;64828;49.956;8.636;2023-06-26T01:30:32;38.76;37.02;40.66;;
76100;Laerm;64828;49.956;8.636;2023-06-26T01:30:51;38.61;37.11;40.03;;
76100;Laerm;64828;49.956;8.636;2023-06-26T01:31:07;38.63;37.12;40.00;;
76100;Laerm;64828;49.956;8.636;2023-06-26T01:31:24;39.07;37.56;42.40;;
76100;Laerm;64828;49.956;8.636;2023-06-26T01:31:42;38.84;36.60;40.31;;
76100;Laerm;64828;49.956;8.636;2023-06-26T01:32:00;38.61;36.75;40.03;;
76100;Laerm;64828;49.956;8.636;2023-06-26T01:32:16;38.72;37.01;40.54;;
76100;Laerm;64828;49.956;8.636;2023-06-26T01:32:33;39.15;37.57;40.92;;
76100;Laerm;64828;49.956;8.636;2023-06-26T01:32:49;39.51;37.63;41.27;;
76100;Laerm;64828;49.956;8.636;2023-06-26T01:33:05;40.14;37.53;41.96;;
76100;Laerm;64828;49.956;8.636;2023-06-26T01:33:21;39.33;37.58;41.18;;
76100;Laerm;64828;49.956;8.636;2023-06-26T01:33:38;39.34;37.51;41.21;;
76100;Laerm;64828;49.956;8.636;2023-06-26T01:33:55;39.82;38.02;41.79;;
76100;Laerm;64828;49.956;8.636;2023-06-26T01:34:12;40.24;38.37;42.27;;
76100;Laerm;64828;49.956;8.636;2023-06-26T01:34:29;39.85;37.95;41.57;;
76100;Laerm;64828;49.956;8.636;2023-06-26T01:34:45;40.19;38.48;41.83;;
76100;Laerm;64828;49.956;8.636;2023-06-26T01:35:02;40.41;38.38;42.74;;